Time;durP1;ratioP1;P1;durP2;ratioP2;P2;SDS_P1;SDS_P2;PMS_P1;PMS_P2;Temp;Humidity;BMP_temperature;BMP_pressure;BME280_temperature;BME280_humidity;BME280_pressure;Samples;Min_cycle;Max_cycle;Signal;HPM_P1;HPM_P2
2021/12/22 00:02:13;;;;;;;1999.90;999.90;;;;;;;;;;5003952;28;20029;-77
2021/12/22 00:04:44;;;;;;;1999.90;999.90;;;;;;;;;;5020474;28;20030;-77
2021/12/22 00:07:13;;;;;;;1999.90;999.90;;;;;;;;;;5036357;28;20033;-77
2021/12/22 00:09:39;;;;;;;1999.90;999.90;;;;;;;;;;5036708;28;20033;-78
2021/12/22 00:12:05;;;;;;;1999.90;999.90;;;;;;;;;;5036816;28;20094;-77
2021/12/22 00:14:30;;;;;;;1999.90;999.90;;;;;;;;;;5036681;28;20036;-78
2021/12/22 00:16:55;;;;;;;1999.90;999.90;;;;;;;;;;5036449;28;20108;-78
2021/12/22 00:19:21;;;;;;;1999.90;999.90;;;;;;;;;;5053303;28;20041;-77
2021/12/22 00:21:46;;;;;;;1999.90;999.90;;;;;;;;;;5052821;28;20045;-78
2021/12/22 00:24:12;;;;;;;1999.90;999.90;;;;;;;;;;5003435;28;20867;-77
2021/12/22 00:26:37;;;;;;;1999.90;999.90;;;;;;;;;;5019938;28;20084;-78
2021/12/22 00:29:03;;;;;;;1999.90;999.90;;;;;;;;;;5020046;28;20130;-77
2021/12/22 00:31:29;;;;;;;1999.90;999.90;;;;;;;;;;5019916;28;20029;-77
2021/12/22 00:33:57;;;;;;;1999.90;999.90;;;;;;;;;;5019020;28;20059;-78
2021/12/22 00:36:23;;;;;;;1999.90;999.90;;;;;;;;;;5020570;28;20025;-78
2021/12/22 00:38:49;;;;;;;1999.90;999.90;;;;;;;;;;5020387;28;20044;-77
2021/12/22 00:41:15;;;;;;;1999.90;999.90;;;;;;;;;;5003578;28;20452;-78
2021/12/22 00:43:41;;;;;;;1999.90;999.90;;;;;;;;;;5011236;28;20064;-77
2021/12/22 00:46:07;;;;;;;1999.90;999.90;;;;;;;;;;5002775;28;20031;-78
2021/12/22 00:48:32;;;;;;;1999.90;999.90;;;;;;;;;;5020012;28;20454;-78
2021/12/22 00:50:58;;;;;;;1999.90;999.90;;;;;;;;;;5036554;28;20075;-78
2021/12/22 00:53:23;;;;;;;1999.90;999.90;;;;;;;;;;5036152;28;20041;-77
2021/12/22 00:55:49;;;;;;;1999.90;999.90;;;;;;;;;;5036182;28;20029;-78
2021/12/22 00:58:15;;;;;;;1999.90;999.90;;;;;;;;;;5052737;28;20033;-77
2021/12/22 01:00:41;;;;;;;1999.90;999.90;;;;;;;;;;5004055;28;20033;-77
2021/12/22 01:03:06;;;;;;;1999.90;999.90;;;;;;;;;;5003609;28;20022;-77
2021/12/22 01:05:32;;;;;;;1999.90;999.90;;;;;;;;;;5017403;28;20033;-77
2021/12/22 01:07:57;;;;;;;1999.90;999.90;;;;;;;;;;5000609;28;20106;-77
2021/12/22 01:10:25;;;;;;;1999.90;999.90;;;;;;;;;;5016695;28;20033;-77
2021/12/22 01:12:52;;;;;;;1999.90;999.90;;;;;;;;;;4999879;28;20061;-78
2021/12/22 01:15:18;;;;;;;1999.90;999.90;;;;;;;;;;5016435;28;20052;-77
2021/12/22 01:17:47;;;;;;;1999.90;999.90;;;;;;;;;;5000364;28;20033;-77
2021/12/22 01:20:31;;;;;;;1999.90;999.90;;;;;;;;;;5017240;28;20076;-77
2021/12/22 01:23:03;;;;;;;1999.90;999.90;;;;;;;;;;5019255;28;20037;-79
2021/12/22 01:25:35;;;;;;;;;;;;;;;;;;5017531;28;20032;-77
2021/12/22 01:28:00;;;;;;;1999.90;999.90;;;;;;;;;;5016688;28;19978;-78
2021/12/22 01:30:27;;;;;;;1999.90;999.90;;;;;;;;;;5016367;28;20480;-77
2021/12/22 01:32:54;;;;;;;1999.90;999.90;;;;;;;;;;5000207;28;20040;-77
2021/12/22 01:35:24;;;;;;;1999.90;999.90;;;;;;;;;;5000144;28;20116;-77
2021/12/22 01:37:50;;;;;;;1999.90;999.90;;;;;;;;;;5015975;28;20060;-77
2021/12/22 01:40:15;;;;;;;1999.90;999.90;;;;;;;;;;5015883;28;20511;-78
2021/12/22 01:42:41;;;;;;;1999.90;999.90;;;;;;;;;;4995739;28;20026;-78
2021/12/22 01:45:26;;;;;;;1999.90;999.90;;;;;;;;;;5008122;28;20068;-78
2021/12/22 01:50:40;;;;;;;1999.90;999.90;;;;;;;;;;5018705;28;20072;-77
2021/12/22 01:53:30;;;;;;;1999.90;999.90;;;;;;;;;;5032382;28;20033;-77
2021/12/22 01:56:18;;;;;;;1999.90;999.90;;;;;;;;;;5027877;28;20124;-77
2021/12/22 01:58:45;;;;;;;1999.90;999.90;;;;;;;;;;5002673;28;20061;-77
2021/12/22 02:01:10;;;;;;;1999.90;999.90;;;;;;;;;;5015365;28;20037;-77
2021/12/22 02:03:38;;;;;;;1999.90;999.90;;;;;;;;;;4999088;28;20033;-77
2021/12/22 02:06:05;;;;;;;1999.90;999.90;;;;;;;;;;4999676;28;20044;-77
2021/12/22 02:08:31;;;;;;;1999.90;999.90;;;;;;;;;;5015871;28;20038;-78
2021/12/22 02:10:57;;;;;;;1999.90;999.90;;;;;;;;;;4998888;28;20530;-78
2021/12/22 02:13:28;;;;;;;1999.90;999.90;;;;;;;;;;5015379;28;20057;-78
2021/12/22 02:15:54;;;;;;;1999.90;999.90;;;;;;;;;;5031254;28;20033;-77
2021/12/22 02:18:21;;;;;;;1999.90;999.90;;;;;;;;;;5047664;28;20040;-78
2021/12/22 02:20:50;;;;;;;1999.90;999.90;;;;;;;;;;5015890;28;20045;-77
2021/12/22 02:23:15;;;;;;;1999.90;999.90;;;;;;;;;;5031777;28;20108;-78
2021/12/22 02:25:48;;;;;;;1999.90;999.90;;;;;;;;;;5015087;28;20387;-77
2021/12/22 02:28:20;;;;;;;1999.90;999.90;;;;;;;;;;5032013;28;20029;-78
2021/12/22 02:30:46;;;;;;;1999.90;999.90;;;;;;;;;;5012481;28;20041;-77
2021/12/22 02:33:26;;;;;;;1999.90;999.90;;;;;;;;;;5014104;28;20033;-77
2021/12/22 02:38:32;;;;;;;1999.90;999.90;;;;;;;;;;5031850;28;20033;-77
2021/12/22 02:40:57;;;;;;;1999.90;999.90;;;;;;;;;;4997926;28;20029;-77
2021/12/22 02:43:24;;;;;;;1999.90;999.90;;;;;;;;;;5015274;28;20055;-78
2021/12/22 02:45:51;;;;;;;1999.90;999.90;;;;;;;;;;5027611;28;20056;-78
2021/12/22 02:48:17;;;;;;;1999.90;999.90;;;;;;;;;;4979168;28;20034;-77
2021/12/22 02:50:43;;;;;;;1999.90;999.90;;;;;;;;;;4996097;28;20060;-77
2021/12/22 02:53:12;;;;;;;1999.90;999.90;;;;;;;;;;5014610;28;20038;-77
2021/12/22 02:55:50;;;;;;;1999.90;999.90;;;;;;;;;;5031056;28;20095;-77
2021/12/22 02:58:29;;;;;;;1999.90;999.90;;;;;;;;;;5024279;28;20121;-78
2021/12/22 03:01:12;;;;;;;1999.90;999.90;;;;;;;;;;4996788;28;20026;-78
2021/12/22 03:06:09;;;;;;;1999.90;999.90;;;;;;;;;;5031074;28;20020;-78
2021/12/22 03:08:34;;;;;;;1999.90;999.90;;;;;;;;;;5014987;28;20036;-78
2021/12/22 03:10:59;;;;;;;1999.90;999.90;;;;;;;;;;5030642;28;20108;-77
2021/12/22 03:13:25;;;;;;;1999.90;999.90;;;;;;;;;;5030488;28;20033;-77
2021/12/22 03:15:51;;;;;;;1999.90;999.90;;;;;;;;;;5030559;28;20095;-78
2021/12/22 03:18:17;;;;;;;1999.90;999.90;;;;;;;;;;5047557;28;20430;-78
2021/12/22 03:20:45;;;;;;;1999.90;999.90;;;;;;;;;;5047225;28;20108;-78
2021/12/22 03:23:11;;;;;;;1999.90;999.90;;;;;;;;;;5030157;28;20502;-78
2021/12/22 03:25:38;;;;;;;1999.90;999.90;;;;;;;;;;5012352;28;20037;-77
2021/12/22 03:28:04;;;;;;;1999.90;999.90;;;;;;;;;;4994766;28;20108;-77
2021/12/22 03:30:30;;;;;;;1525.22;752.65;;;;;;;;;;5006562;28;20974;-77
2021/12/22 03:32:56;;;;;;;1999.90;999.90;;;;;;;;;;5030494;28;20041;-77
2021/12/22 03:35:22;;;;;;;1999.90;999.90;;;;;;;;;;5030495;28;20032;-77
2021/12/22 03:37:50;;;;;;;1999.90;999.90;;;;;;;;;;5013899;28;20026;-77
2021/12/22 03:40:16;;;;;;;1999.90;999.90;;;;;;;;;;4997750;28;20033;-77
2021/12/22 03:42:42;;;;;;;1999.90;999.90;;;;;;;;;;4997839;28;20026;-77
2021/12/22 03:45:08;;;;;;;1999.90;999.90;;;;;;;;;;5012655;28;20427;-77
2021/12/22 03:47:33;;;;;;;1999.90;999.90;;;;;;;;;;4997650;28;20041;-78
2021/12/22 03:49:58;;;;;;;1999.90;999.90;;;;;;;;;;5013992;28;20435;-78
2021/12/22 03:52:24;;;;;;;1999.90;999.90;;;;;;;;;;4993050;28;20389;-78
2021/12/22 03:54:54;;;;;;;1999.90;999.90;;;;;;;;;;4994162;28;20042;-78
2021/12/22 03:57:20;;;;;;;1999.90;999.90;;;;;;;;;;5010723;28;20114;-77
2021/12/22 03:59:46;;;;;;;1999.90;999.90;;;;;;;;;;4994596;28;20113;-78
2021/12/22 04:02:12;;;;;;;1999.90;999.90;;;;;;;;;;5010334;28;20595;-77
2021/12/22 04:04:37;;;;;;;1999.90;999.90;;;;;;;;;;5010616;28;20037;-77
2021/12/22 04:07:03;;;;;;;1999.90;999.90;;;;;;;;;;5025541;28;20033;-78
2021/12/22 04:09:29;;;;;;;1999.90;999.90;;;;;;;;;;5013576;28;20056;-77
2021/12/22 04:11:55;;;;;;;1999.90;999.90;;;;;;;;;;4997366;28;20053;-77
2021/12/22 04:14:20;;;;;;;1999.90;999.90;;;;;;;;;;5013779;28;20025;-78
2021/12/22 04:16:46;;;;;;;1999.90;999.90;;;;;;;;;;4993639;28;20349;-77
2021/12/22 04:19:11;;;;;;;1999.90;999.90;;;;;;;;;;4994377;28;20100;-77
2021/12/22 04:21:37;;;;;;;1999.90;999.90;;;;;;;;;;4993651;28;20038;-77
2021/12/22 04:24:05;;;;;;;1999.90;999.90;;;;;;;;;;5026939;28;20042;-77
2021/12/22 04:26:32;;;;;;;1999.90;999.90;;;;;;;;;;5002861;28;20373;-77
2021/12/22 04:28:57;;;;;;;1999.90;999.90;;;;;;;;;;5013948;28;20033;-77
2021/12/22 04:31:23;;;;;;;1999.90;999.90;;;;;;;;;;4997153;28;20025;-77
2021/12/22 04:33:49;;;;;;;1999.90;999.90;;;;;;;;;;5013674;28;20078;-77
2021/12/22 04:36:14;;;;;;;1999.90;999.90;;;;;;;;;;5013477;28;20041;-77
2021/12/22 04:38:40;;;;;;;1999.90;999.90;;;;;;;;;;4996393;28;20029;-77
2021/12/22 04:41:05;;;;;;;1999.90;999.90;;;;;;;;;;4999169;28;20033;-77
2021/12/22 04:43:31;;;;;;;1999.90;999.90;;;;;;;;;;5050230;28;20491;-77
2021/12/22 04:45:56;;;;;;;1999.90;999.90;;;;;;;;;;5049884;28;20037;-77
2021/12/22 04:48:22;;;;;;;1999.90;999.90;;;;;;;;;;5050316;28;20064;-77
2021/12/22 04:50:47;;;;;;;1999.90;999.90;;;;;;;;;;5029529;28;20526;-77
2021/12/22 04:53:19;;;;;;;1999.90;999.90;;;;;;;;;;5030014;28;20034;-77
2021/12/22 04:55:45;;;;;;;1999.90;999.90;;;;;;;;;;5029214;28;20033;-77
2021/12/22 04:58:10;;;;;;;1999.90;999.90;;;;;;;;;;4997908;28;20380;-77
2021/12/22 05:00:37;;;;;;;1999.90;999.90;;;;;;;;;;5029479;28;20391;-77
2021/12/22 05:03:03;;;;;;;1999.90;999.90;;;;;;;;;;5007892;28;20040;-77
2021/12/22 05:05:29;;;;;;;1999.90;999.90;;;;;;;;;;5049806;28;20080;-77
2021/12/22 05:07:54;;;;;;;1999.90;999.90;;;;;;;;;;5033391;28;20037;-77
2021/12/22 05:10:20;;;;;;;1999.90;999.90;;;;;;;;;;5033068;28;20033;-78
2021/12/22 05:12:48;;;;;;;1999.90;999.90;;;;;;;;;;5016208;28;20476;-77
2021/12/22 05:15:14;;;;;;;1999.90;999.90;;;;;;;;;;5016675;28;20030;-76
2021/12/22 05:20:08;;;;;;;1999.90;999.90;;;;;;;;;;5016641;28;20149;-77
2021/12/22 05:22:33;;;;;;;1999.90;999.90;;;;;;;;;;5000225;28;20064;-77
2021/12/22 05:24:59;;;;;;;1999.90;999.90;;;;;;;;;;5000231;28;20037;-77
2021/12/22 05:27:29;;;;;;;1999.90;999.90;;;;;;;;;;5015887;28;20384;-78
2021/12/22 05:29:54;;;;;;;1999.90;999.90;;;;;;;;;;5000564;28;20043;-77
2021/12/22 05:32:23;;;;;;;1999.90;999.90;;;;;;;;;;4998509;28;20391;-77
2021/12/22 05:34:48;;;;;;;1999.90;999.90;;;;;;;;;;5011234;28;20041;-77
2021/12/22 05:37:14;;;;;;;1999.90;999.90;;;;;;;;;;5032779;28;20052;-77
2021/12/22 05:39:39;;;;;;;1999.90;999.90;;;;;;;;;;5015816;28;20075;-78
2021/12/22 05:42:05;;;;;;;1999.90;999.90;;;;;;;;;;5016058;28;20033;-77
2021/12/22 05:44:30;;;;;;;1999.90;999.90;;;;;;;;;;5032688;28;20032;-77
2021/12/22 05:46:56;;;;;;;1999.90;999.90;;;;;;;;;;5015586;28;20496;-77
2021/12/22 05:49:21;;;;;;;1999.90;999.90;;;;;;;;;;4998906;28;20430;-77
2021/12/22 05:51:47;;;;;;;1999.90;999.90;;;;;;;;;;5015261;28;20044;-77
2021/12/22 05:54:12;;;;;;;1999.90;999.90;;;;;;;;;;4999471;28;20033;-78
2021/12/22 05:56:37;;;;;;;1999.90;999.90;;;;;;;;;;4999729;28;20496;-77
2021/12/22 05:59:03;;;;;;;1999.90;999.90;;;;;;;;;;5016126;28;20034;-77
2021/12/22 06:01:30;;;;;;;1999.90;999.90;;;;;;;;;;5015426;28;20135;-77
2021/12/22 06:03:56;;;;;;;1999.90;999.90;;;;;;;;;;4999407;28;20026;-77
2021/12/22 06:06:22;;;;;;;1999.90;999.90;;;;;;;;;;5012185;28;20084;-77
2021/12/22 06:08:47;;;;;;;1999.90;999.90;;;;;;;;;;5019945;28;20117;-77
2021/12/22 06:11:12;;;;;;;1999.90;999.90;;;;;;;;;;4996091;28;20056;-77
2021/12/22 06:13:38;;;;;;;1999.90;999.90;;;;;;;;;;4995805;28;20392;-77
2021/12/22 06:16:04;;;;;;;1999.90;999.90;;;;;;;;;;4986207;28;20033;-77
2021/12/22 06:18:29;;;;;;;1999.90;999.90;;;;;;;;;;4999150;28;20112;-77
2021/12/22 06:20:55;;;;;;;1999.90;999.90;;;;;;;;;;5015412;28;20033;-77
2021/12/22 06:23:20;;;;;;;1999.90;999.90;;;;;;;;;;4985016;28;20484;-77
2021/12/22 06:25:46;;;;;;;1999.90;999.90;;;;;;;;;;5008051;28;20057;-77
2021/12/22 06:28:11;;;;;;;1999.90;999.90;;;;;;;;;;5012140;28;20466;-77
2021/12/22 06:30:36;;;;;;;1999.90;999.90;;;;;;;;;;4979447;28;20022;-77
2021/12/22 06:33:02;;;;;;;1999.90;999.90;;;;;;;;;;4998185;28;20048;-77
2021/12/22 06:35:27;;;;;;;1999.90;999.90;;;;;;;;;;5014798;28;20048;-77
2021/12/22 06:37:53;;;;;;;1999.90;999.90;;;;;;;;;;4982699;28;20029;-76
2021/12/22 06:40:18;;;;;;;1999.90;999.90;;;;;;;;;;5020381;28;20092;-76
2021/12/22 06:42:44;;;;;;;1999.90;999.90;;;;;;;;;;4976302;28;20037;-77
2021/12/22 06:45:11;;;;;;;1999.90;999.90;;;;;;;;;;4999381;28;20033;-76
2021/12/22 06:47:37;;;;;;;1999.90;999.90;;;;;;;;;;4998521;28;20029;-76
2021/12/22 06:50:04;;;;;;;1999.90;999.90;;;;;;;;;;5031151;28;20057;-76
2021/12/22 06:52:29;;;;;;;1999.90;999.90;;;;;;;;;;5014731;28;20121;-77
2021/12/22 06:54:55;;;;;;;1999.90;999.90;;;;;;;;;;5010751;28;20034;-76
2021/12/22 06:57:21;;;;;;;1999.90;999.90;;;;;;;;;;4995013;28;20396;-76
2021/12/22 06:59:47;;;;;;;1999.90;999.90;;;;;;;;;;4996980;28;20049;-77
2021/12/22 07:02:13;;;;;;;1520.53;751.22;;;;;;;;;;5000955;28;20045;-76
2021/12/22 07:04:38;;;;;;;1999.90;999.90;;;;;;;;;;5010752;28;20034;-76
2021/12/22 07:07:03;;;;;;;1999.90;999.90;;;;;;;;;;5011180;28;20068;-76
2021/12/22 07:09:29;;;;;;;1999.90;999.90;;;;;;;;;;5027594;28;20044;-77
2021/12/22 07:11:54;;;;;;;1999.90;999.90;;;;;;;;;;5024580;28;20387;-77
2021/12/22 07:14:21;;;;;;;1999.90;999.90;;;;;;;;;;5047269;28;20029;-77
2021/12/22 07:16:47;;;;;;;1999.90;999.90;;;;;;;;;;4993950;28;20061;-77
2021/12/22 07:19:13;;;;;;;1999.90;999.90;;;;;;;;;;5011133;28;20041;-76
2021/12/22 07:21:38;;;;;;;1999.90;999.90;;;;;;;;;;5011047;28;20050;-76
2021/12/22 07:24:05;;;;;;;1999.90;999.90;;;;;;;;;;4994701;28;20080;-77
2021/12/22 07:26:30;;;;;;;1999.90;999.90;;;;;;;;;;4999754;28;20038;-77
2021/12/22 07:28:55;;;;;;;1999.90;999.90;;;;;;;;;;5010817;28;20036;-77
2021/12/22 07:31:21;;;;;;;1999.90;999.90;;;;;;;;;;5040232;28;20042;-76
2021/12/22 07:33:48;;;;;;;1999.90;999.90;;;;;;;;;;5047215;28;20061;-76
2021/12/22 07:36:14;;;;;;;1999.90;999.90;;;;;;;;;;5030444;28;20444;-76
2021/12/22 07:38:39;;;;;;;1999.90;999.90;;;;;;;;;;5008111;28;20037;-77
2021/12/22 07:41:05;;;;;;;1999.90;999.90;;;;;;;;;;4994453;28;20034;-76
2021/12/22 07:43:30;;;;;;;1999.90;999.90;;;;;;;;;;4987308;28;20045;-77
2021/12/22 07:45:56;;;;;;;1999.90;999.90;;;;;;;;;;5003883;28;20037;-79
2021/12/22 07:48:21;;;;;;;1999.90;999.90;;;;;;;;;;5014228;28;20060;-77
2021/12/22 07:50:47;;;;;;;1999.90;999.90;;;;;;;;;;5028858;28;20056;-78
2021/12/22 07:53:12;;;;;;;1999.90;999.90;;;;;;;;;;5013400;28;20492;-79
2021/12/22 07:55:38;;;;;;;1999.90;999.90;;;;;;;;;;4997473;28;20034;-78
2021/12/22 07:58:03;;;;;;;1999.90;999.90;;;;;;;;;;5014177;28;20052;-78
2021/12/22 08:00:29;;;;;;;1999.90;999.90;;;;;;;;;;5013433;28;20048;-80
2021/12/22 08:02:54;;;;;;;1999.90;999.90;;;;;;;;;;4997356;28;20135;-76
2021/12/22 08:05:20;;;;;;;1999.90;999.90;;;;;;;;;;5030349;28;20435;-77
2021/12/22 08:07:45;;;;;;;1999.90;999.90;;;;;;;;;;5029553;28;20025;-78
2021/12/22 08:10:11;;;;;;;1999.90;999.90;;;;;;;;;;5011107;28;20442;-78
2021/12/22 08:12:36;;;;;;;1999.90;999.90;;;;;;;;;;5008021;28;20029;-78
2021/12/22 08:15:02;;;;;;;1999.90;999.90;;;;;;;;;;5005650;28;20047;-78
2021/12/22 08:17:29;;;;;;;1999.90;999.90;;;;;;;;;;5008738;28;20049;-79
2021/12/22 08:19:54;;;;;;;1999.90;999.90;;;;;;;;;;5001674;28;20483;-79
2021/12/22 08:22:20;;;;;;;1999.90;999.90;;;;;;;;;;5033759;28;20056;-80
2021/12/22 08:24:45;;;;;;;1999.90;999.90;;;;;;;;;;5017547;28;20033;-80
2021/12/22 08:27:11;;;;;;;1999.90;999.90;;;;;;;;;;5020614;28;20384;-81
2021/12/22 08:29:43;;;;;;;1999.90;999.90;;;;;;;;;;5038979;28;20392;-80
2021/12/22 08:32:10;;;;;;;1999.90;999.90;;;;;;;;;;4991473;28;20030;-80
2021/12/22 08:34:39;;;;;;;1999.90;999.90;;;;;;;;;;4998674;28;20149;-80
2021/12/22 08:39:48;;;;;;;1999.90;999.90;;;;;;;;;;5047832;28;20045;-79
2021/12/22 08:42:14;;;;;;;1999.90;999.90;;;;;;;;;;5032868;28;20155;-78
2021/12/22 08:44:39;;;;;;;1999.90;999.90;;;;;;;;;;5017443;28;20140;-79
2021/12/22 08:47:05;;;;;;;1999.90;999.90;;;;;;;;;;5016817;28;20057;-80
2021/12/22 08:49:31;;;;;;;1999.90;999.90;;;;;;;;;;5050165;28;20093;-79
2021/12/22 08:51:56;;;;;;;1999.90;999.90;;;;;;;;;;5049894;28;20061;-79
2021/12/22 08:54:22;;;;;;;1999.90;999.90;;;;;;;;;;5000187;28;20048;-78
2021/12/22 08:56:47;;;;;;;1999.90;999.90;;;;;;;;;;4984059;28;20052;-79
2021/12/22 08:59:13;;;;;;;1999.90;999.90;;;;;;;;;;5033541;28;20133;-78
2021/12/22 09:01:39;;;;;;;1999.90;999.90;;;;;;;;;;5014597;28;20127;-78
2021/12/22 09:04:04;;;;;;;1999.90;999.90;;;;;;;;;;5013613;28;20030;-78
2021/12/22 09:06:30;;;;;;;1999.90;999.90;;;;;;;;;;5028011;28;20035;-78
2021/12/22 09:08:55;;;;;;;1999.90;999.90;;;;;;;;;;5000464;28;20041;-79
2021/12/22 09:11:21;;;;;;;1999.90;999.90;;;;;;;;;;4996046;28;20064;-79
2021/12/22 09:13:47;;;;;;;1999.90;999.90;;;;;;;;;;4980862;28;20472;-79
2021/12/22 09:16:12;;;;;;;1999.90;999.90;;;;;;;;;;4997214;28;20026;-78
2021/12/22 09:18:38;;;;;;;1512.82;751.72;;;;;;;;;;5016108;28;20041;-79
2021/12/22 09:21:05;;;;;;;1999.90;999.90;;;;;;;;;;5048021;28;20040;-79
2021/12/22 09:23:30;;;;;;;1999.90;999.90;;;;;;;;;;5032496;28;20036;-78
2021/12/22 09:25:56;;;;;;;1999.90;999.90;;;;;;;;;;5031561;28;20037;-78
2021/12/22 09:28:21;;;;;;;1999.90;999.90;;;;;;;;;;5016372;28;20045;-78
2021/12/22 09:30:47;;;;;;;1999.90;999.90;;;;;;;;;;5015803;28;20396;-79
2021/12/22 09:33:16;;;;;;;1999.90;999.90;;;;;;;;;;5016362;28;20029;-82
2021/12/22 09:35:42;;;;;;;1999.90;999.90;;;;;;;;;;5016570;28;20483;-84
2021/12/22 09:38:07;;;;;;;1999.90;999.90;;;;;;;;;;4983667;28;20439;-82
2021/12/22 09:40:33;;;;;;;1999.90;999.90;;;;;;;;;;4983365;28;20030;-82
2021/12/22 09:43:00;;;;;;;1999.90;999.90;;;;;;;;;;4995139;28;20033;-86
2021/12/22 09:45:26;;;;;;;1999.90;999.90;;;;;;;;;;4999462;28;20033;-82
2021/12/22 09:48:22;;;;;;;1999.90;999.90;;;;;;;;;;5000843;28;20502;-84
2021/12/22 09:50:53;;;;;;;1999.90;999.90;;;;;;;;;;5006432;28;20120;-83
2021/12/22 09:53:20;;;;;;;1999.90;999.90;;;;;;;;;;4997502;28;20076;-84
2021/12/22 09:55:47;;;;;;;1999.90;999.90;;;;;;;;;;4996192;28;20040;-82
2021/12/22 09:58:14;;;;;;;1999.90;999.90;;;;;;;;;;5001977;28;20037;-76
2021/12/22 10:00:39;;;;;;;1999.90;999.90;;;;;;;;;;5028599;28;20034;-76
2021/12/22 10:03:05;;;;;;;1999.90;999.90;;;;;;;;;;5014997;28;20542;-76
2021/12/22 10:05:31;;;;;;;1999.90;999.90;;;;;;;;;;5032258;28;20041;-76
2021/12/22 10:08:13;;;;;;;1999.90;999.90;;;;;;;;;;5043618;28;20365;-75
2021/12/22 10:10:44;;;;;;;1999.90;999.90;;;;;;;;;;5012304;28;20029;-76
2021/12/22 10:13:14;;;;;;;1999.90;999.90;;;;;;;;;;5012627;28;20030;-76
2021/12/22 10:15:39;;;;;;;1999.90;999.90;;;;;;;;;;5012164;28;20032;-76
2021/12/22 10:18:09;;;;;;;1999.90;999.90;;;;;;;;;;5007226;28;20033;-75
2021/12/22 10:20:34;;;;;;;1999.90;999.90;;;;;;;;;;5014352;28;20073;-76
2021/12/22 10:23:00;;;;;;;1999.90;999.90;;;;;;;;;;5014853;28;20037;-75
2021/12/22 10:25:28;;;;;;;1999.90;999.90;;;;;;;;;;5031697;28;20038;-75
2021/12/22 10:28:01;;;;;;;1999.90;999.90;;;;;;;;;;4996428;28;20159;-75
2021/12/22 10:30:30;;;;;;;1999.90;999.90;;;;;;;;;;5012124;28;20380;-75
2021/12/22 10:33:11;;;;;;;1999.90;999.90;;;;;;;;;;4995753;28;20037;-75
2021/12/22 10:35:38;;;;;;;1999.90;999.90;;;;;;;;;;5012164;28;20080;-75
2021/12/22 10:38:04;;;;;;;1999.90;999.90;;;;;;;;;;4978603;28;20061;-75
2021/12/22 10:40:31;;;;;;;1999.90;999.90;;;;;;;;;;5012035;28;20120;-75
2021/12/22 10:42:56;;;;;;;1999.90;999.90;;;;;;;;;;5011654;28;20488;-75
2021/12/22 10:45:22;;;;;;;1999.90;999.90;;;;;;;;;;4994980;28;20034;-75
2021/12/22 10:50:35;;;;;;;1105.32;509.25;;;;;;;;;;4998404;28;20048;-74
2021/12/22 10:53:01;;;;;;;1999.90;999.90;;;;;;;;;;5027546;28;20042;-75
2021/12/22 10:55:41;;;;;;;1999.90;999.90;;;;;;;;;;5000372;28;20110;-75
2021/12/22 10:58:14;;;;;;;1999.90;999.90;;;;;;;;;;5016405;28;20025;-74
2021/12/22 11:00:40;;;;;;;1999.90;999.90;;;;;;;;;;4998415;28;20033;-75
2021/12/22 11:03:08;;;;;;;1999.90;999.90;;;;;;;;;;5014592;28;20029;-74
2021/12/22 11:05:47;;;;;;;1999.90;999.90;;;;;;;;;;5031034;28;20089;-75
2021/12/22 11:08:19;;;;;;;1999.90;999.90;;;;;;;;;;5030749;28;20060;-74
2021/12/22 11:10:45;;;;;;;1999.90;999.90;;;;;;;;;;5030840;28;20030;-74
2021/12/22 11:13:10;;;;;;;1999.90;999.90;;;;;;;;;;5014728;28;20044;-74
2021/12/22 11:15:40;;;;;;;1999.90;999.90;;;;;;;;;;5014099;28;20048;-74
2021/12/22 11:18:36;;;;;;;1999.90;999.90;;;;;;;;;;5014815;28;20545;-75
2021/12/22 11:21:15;;;;;;;1999.90;999.90;;;;;;;;;;5027579;28;20046;-75
2021/12/22 11:23:40;;;;;;;1999.90;999.90;;;;;;;;;;5015771;28;20029;-74
2021/12/22 11:26:06;;;;;;;1999.90;999.90;;;;;;;;;;5014154;28;20426;-74
2021/12/22 11:28:34;;;;;;;1999.90;999.90;;;;;;;;;;5030811;28;20029;-75
2021/12/22 11:30:59;;;;;;;1999.90;999.90;;;;;;;;;;5030502;28;20048;-74
2021/12/22 11:33:25;;;;;;;1999.90;999.90;;;;;;;;;;5030821;28;20480;-75
2021/12/22 11:35:51;;;;;;;1999.90;999.90;;;;;;;;;;5014090;28;20036;-75
2021/12/22 11:38:16;;;;;;;1999.90;999.90;;;;;;;;;;4997796;28;20034;-75
2021/12/22 11:40:51;;;;;;;1999.90;999.90;;;;;;;;;;5013961;28;20048;-75
2021/12/22 11:43:16;;;;;;;1999.90;999.90;;;;;;;;;;5030668;28;20022;-75
2021/12/22 11:45:42;;;;;;;1999.90;999.90;;;;;;;;;;5013763;28;20028;-75
2021/12/22 11:48:07;;;;;;;1999.90;999.90;;;;;;;;;;4997918;28;20036;-75
2021/12/22 11:50:34;;;;;;;1999.90;999.90;;;;;;;;;;4999167;28;20836;-75
2021/12/22 11:53:04;;;;;;;1999.90;999.90;;;;;;;;;;4994307;28;20081;-75
2021/12/22 11:55:42;;;;;;;1999.90;999.90;;;;;;;;;;5011204;28;20468;-75
2021/12/22 11:58:18;;;;;;;1999.90;999.90;;;;;;;;;;5011374;28;20463;-75
2021/12/22 12:00:45;;;;;;;1999.90;999.90;;;;;;;;;;4977937;28;20072;-75
2021/12/22 12:03:30;;;;;;;1999.90;999.90;;;;;;;;;;4994714;28;20030;-75
2021/12/22 12:06:11;;;;;;;1999.90;999.90;;;;;;;;;;5026843;28;20457;-75
2021/12/22 12:08:49;;;;;;;1999.90;999.90;;;;;;;;;;5011857;28;20068;-75
2021/12/22 12:11:21;;;;;;;1999.90;999.90;;;;;;;;;;5034796;28;20033;-75
2021/12/22 12:13:54;;;;;;;1999.90;999.90;;;;;;;;;;5046192;28;20083;-75
2021/12/22 12:22:09;;;;;;;1999.90;999.90;;;;;;;;;;5044308;28;20041;-75
2021/12/22 12:24:39;;;;;;;1999.90;999.90;;;;;;;;;;5030084;28;20025;-75
2021/12/22 12:27:33;;;;;;;1999.90;999.90;;;;;;;;;;5017996;28;20400;-75
2021/12/22 12:30:19;;;;;;;1999.90;999.90;;;;;;;;;;5027091;28;20152;-75
2021/12/22 12:32:50;;;;;;;1999.90;999.90;;;;;;;;;;5026599;28;20071;-75
2021/12/22 12:35:28;;;;;;;1999.90;999.90;;;;;;;;;;5025118;28;20033;-75
2021/12/22 12:38:11;;;;;;;1999.90;999.90;;;;;;;;;;4994028;28;20048;-75
2021/12/22 12:41:00;;;;;;;1999.90;999.90;;;;;;;;;;5010389;28;20034;-75
2021/12/22 12:43:44;;;;;;;1999.90;999.90;;;;;;;;;;5030726;28;20083;-75
2021/12/22 12:46:38;;;;;;;1999.90;999.90;;;;;;;;;;5031070;28;20501;-75
2021/12/22 12:49:07;;;;;;;1999.90;999.90;;;;;;;;;;5030032;28;20029;-75
2021/12/22 12:51:54;;;;;;;1999.90;999.90;;;;;;;;;;5030914;28;20081;-75
2021/12/22 12:54:23;;;;;;;1999.90;999.90;;;;;;;;;;5015649;28;20034;-75
2021/12/22 12:57:19;;;;;;;1999.90;999.90;;;;;;;;;;5031333;28;20045;-75
2021/12/22 12:59:47;;;;;;;1999.90;999.90;;;;;;;;;;5016990;28;20120;-75
2021/12/22 13:02:25;;;;;;;1999.90;999.90;;;;;;;;;;5015569;28;20034;-75
2021/12/22 13:05:07;;;;;;;1999.90;999.90;;;;;;;;;;5016597;28;20025;-75
2021/12/22 13:07:33;;;;;;;1999.90;999.90;;;;;;;;;;5016803;28;20422;-75
2021/12/22 13:10:15;;;;;;;1999.90;999.90;;;;;;;;;;5016952;28;20029;-75
2021/12/22 13:18:06;;;;;;;1999.90;999.90;;;;;;;;;;5013686;28;20034;-75
2021/12/22 13:20:36;;;;;;;1999.90;999.90;;;;;;;;;;5014623;28;20094;-75
2021/12/22 13:23:05;;;;;;;1999.90;999.90;;;;;;;;;;4980713;28;20026;-74
2021/12/22 13:25:36;;;;;;;1999.90;999.90;;;;;;;;;;5013041;28;20519;-75
2021/12/22 13:28:10;;;;;;;1999.90;999.90;;;;;;;;;;5013587;28;20037;-75
2021/12/22 13:30:39;;;;;;;1999.90;999.90;;;;;;;;;;5013351;28;20034;-75
2021/12/22 13:33:14;;;;;;;1999.90;999.90;;;;;;;;;;5014217;28;20535;-75
2021/12/22 13:35:54;;;;;;;1999.90;999.90;;;;;;;;;;5017536;28;20056;-75
2021/12/22 13:38:42;;;;;;;1999.90;999.90;;;;;;;;;;5016532;28;20120;-75
2021/12/22 13:41:15;;;;;;;1999.90;999.90;;;;;;;;;;5018229;28;20030;-75
2021/12/22 13:43:44;;;;;;;1999.90;999.90;;;;;;;;;;5017142;28;20029;-75
2021/12/22 13:46:17;;;;;;;1999.90;999.90;;;;;;;;;;5016035;28;20121;-74
2021/12/22 13:49:04;;;;;;;1999.90;999.90;;;;;;;;;;5016829;28;20432;-75
2021/12/22 13:51:33;;;;;;;1999.90;999.90;;;;;;;;;;5032257;28;20044;-75
2021/12/22 13:53:58;;;;;;;1999.90;999.90;;;;;;;;;;5032621;28;20034;-75
2021/12/22 13:56:24;;;;;;;1999.90;999.90;;;;;;;;;;5015946;28;20115;-75
2021/12/22 13:58:57;;;;;;;1999.90;999.90;;;;;;;;;;4999703;28;20037;-75
2021/12/22 14:01:26;;;;;;;1999.90;999.90;;;;;;;;;;5032081;28;20029;-75
2021/12/22 14:04:01;;;;;;;1999.90;999.90;;;;;;;;;;5016087;28;20083;-74
2021/12/22 14:06:53;;;;;;;1999.90;999.90;;;;;;;;;;5032499;28;20487;-75
2021/12/22 14:09:30;;;;;;;1999.90;999.90;;;;;;;;;;5030841;28;20129;-75
2021/12/22 14:11:59;;;;;;;1999.90;999.90;;;;;;;;;;5015646;28;20077;-75
2021/12/22 14:14:35;;;;;;;1999.90;999.90;;;;;;;;;;5032048;28;20036;-75
2021/12/22 14:17:03;;;;;;;1999.90;999.90;;;;;;;;;;5031713;28;20412;-75